Home > Products > Valid Products > TAF

000
FTUS42 KILM 010529
TAFFLO
TAF
KFLO 010529Z 0106/0206 26003KT 5SM BR SKC
     FM010900 00000KT 2SM BR SCT004
      TEMPO 0109/0112 1/2SM FG BKN003
     FM011300 33004KT P6SM BKN060
     FM011900 22005KT P6SM SCT100 SCT250
     FM020000 VRB04KT P6SM FEW250=



000
FTUS42 KILM 010529
TAFCRE
TAF
KCRE 010529Z 0106/0206 00000KT 1/2SM FG VV001
      TEMPO 0109/0111 1SM BR BKN004
     FM011300 36004KT P6SM SCT015 BKN040
     FM011600 18007KT P6SM FEW050 SCT250
     FM020000 VRB04KT P6SM FEW250=



000
FTUS42 KILM 010529
TAFMYR
TAF
KMYR 010529Z 0106/0206 29006KT 3SM BR SKC
      TEMPO 0109/0111 1SM BR BKN004
     FM011300 02004KT P6SM SCT015 BKN040
     FM011600 17008KT P6SM FEW050 SCT250
     FM020000 VRB04KT P6SM FEW250
      AMD LTD TO CLD VIS AND WIND TIL 011100=



000
FTUS42 KILM 010529
TAFILM
TAF
KILM 010529Z 0106/0206 27004KT P6SM OVC003
      TEMPO 0110/0112 2SM BR BKN003
     FM011400 33005KT P6SM SCT015 BKN040
     FM011600 18006KT P6SM FEW050 SCT250
     FM020000 VRB04KT P6SM FEW250=



000
FTUS42 KILM 010529
TAFLBT
TAF
KLBT 010529Z 0106/0206 27003KT 5SM BR SKC
     FM010900 00000KT 2SM BR SCT004
      TEMPO 0110/0112 1/2SM FG BKN003
     FM011300 02004KT P6SM BKN060
     FM011900 25004KT P6SM SCT100 SCT250
     FM020000 VRB03KT P6SM FEW250=



000
FTUS42 KILM 010257 AAB
TAFCRE
TAF AMD
KCRE 010257Z 0103/0124 VRB03KT 4SM BR SCT005 SCT020
      TEMPO 0109/0111 1SM BR BKN004
     FM011300 36004KT P6SM SCT015 BKN040
     FM011600 18007KT P6SM FEW050 SCT250=



000
FTUS42 KILM 010251 AAA
TAFMYR
TAF AMD
KMYR 010251Z 0103/0124 16004KT 6SM BR SCT010 SCT025 OVC050
     FM010700 22004KT 4SM BR SCT005 SCT020
      TEMPO 0109/0111 1SM BR BKN004
     FM011300 02004KT P6SM SCT015 BKN040
     FM011600 17008KT P6SM FEW050 SCT250
      AMD LTD TO CLD VIS AND WIND 0104/0111=



000
FTUS42 KILM 010251 AAA
TAFMYR
TAF AMD
KMYR 010251Z 0103/0124 16004KT 6SM BR SCT010 SCT025 OVC050
     FM010700 22004KT 4SM BR SCT005 SCT020
      TEMPO 0109/0111 1SM BR BKN004
     FM011300 02004KT P6SM SCT015 BKN040
     FM011600 17008KT P6SM FEW050 SCT250
      AMD LTD TO CLD VIS AND WIND 0104/0111=



000
FTUS42 KILM 010250 AAA
TAFCRE
TAF AMD
KCRE 010250Z 0103/0124 VRB05KT P6SM SCT010 OVC050
     FM010500 VRB03KT 4SM BR SCT005 SCT020
      TEMPO 0109/0111 1SM BR BKN004
     FM011300 36004KT P6SM SCT015 BKN040
     FM011600 18007KT P6SM FEW050 SCT250=



000
FTUS42 KILM 010250 AAA
TAFILM
TAF AMD
KILM 010250Z 0103/0124 VRB04KT P6SM FEW005 OVC050
     FM010500 VRB02KT 4SM BR SCT005 SCT020
      TEMPO 0109/0111 2SM BR BKN003
     FM011400 33005KT P6SM SCT015 BKN040
     FM011600 18006KT P6SM FEW050 SCT250=



000
FTUS42 KILM 010250 AAA
TAFILM
TAF AMD
KILM 010250Z 0103/0124 VRB04KT P6SM FEW005 OVC050
     FM010500 VRB02KT 4SM BR SCT005 SCT020
      TEMPO 0109/0111 2SM BR BKN003
     FM011400 33005KT P6SM SCT015 BKN040
     FM011600 18006KT P6SM FEW050 SCT250=



000
FTUS42 KILM 010250 AAA
TAFCRE
TAF AMD
KCRE 010250Z 0103/0124 VRB05KT P6SM SCT010 OVC050
     FM010500 VRB03KT 4SM BR SCT005 SCT020
      TEMPO 0109/0111 1SM BR BKN004
     FM011300 36004KT P6SM SCT015 BKN040
     FM011600 18007KT P6SM FEW050 SCT250=



000
FTUS42 KILM 312329
TAFILM
TAF
KILM 312329Z 0100/0124 06009KT P6SM VCSH SCT015 OVC025
      TEMPO 0100/0104 3SM RA BR BKN009
     FM010500 VRB02KT 4SM BR SCT005 SCT020
      TEMPO 0109/0111 2SM BR BKN003
     FM011400 33005KT P6SM SCT015 BKN040
     FM011600 18006KT P6SM FEW050 SCT250=



000
FTUS42 KILM 312329
TAFCRE
TAF
KCRE 312329Z 0100/0124 VRB05KT P6SM SCT010 BKN025 BKN040
     FM010500 VRB03KT 4SM BR SCT005 SCT020
      TEMPO 0109/0111 1SM BR BKN004
     FM011300 36004KT P6SM SCT015 BKN040
     FM011600 18007KT P6SM FEW050 SCT250=



000
FTUS42 KILM 312329
TAFFLO
TAF
KFLO 312329Z 0100/0124 35007KT P6SM FEW050
     FM010600 VRB02KT 5SM BR SCT015
     FM010900 00000KT 2SM BR SCT004
      TEMPO 0109/0112 1/2SM FG BKN003
     FM011300 33004KT P6SM BKN060
     FM011900 22005KT P6SM SCT100 SCT250=



000
FTUS42 KILM 312329
TAFLBT
TAF
KLBT 312329Z 0100/0124 VRB03KT P6SM SCT025 SCT040
     FM010700 VRB01KT 5SM BR SCT015
     FM011000 00000KT 2SM BR SCT004
      TEMPO 0110/0112 1/2SM FG BKN003
     FM011300 02004KT P6SM BKN060
     FM011900 25004KT P6SM SCT100 SCT250=



000
FTUS42 KILM 312329
TAFMYR
TAF
KMYR 312329Z 0100/0124 16004KT 6SM BR SCT010 BKN025 BKN040
     FM010700 22004KT 4SM BR SCT005 SCT020
      TEMPO 0109/0111 1SM BR BKN004
     FM011300 02004KT P6SM SCT015 BKN040
     FM011600 17008KT P6SM FEW050 SCT250
      AMD LTD TO CLD VIS AND WIND 0104/0111=



000
FTUS42 KILM 312055 AAB
TAFILM
TAF AMD
KILM 312055Z 3121/0118 05003KT P6SM VCSH SCT030 BKN070
      TEMPO 3121/3124 1SM RA BR SCT015 BKN025
     FM010000 16004KT P6SM OVC025
     FM010800 22004KT 4SM BR SCT005
      TEMPO 0109/0111 2SM BR BKN004
     FM011300 VRB04KT P6SM BKN060=



000
FTUS42 KILM 312009 AAA
TAFMYR
TAF AMD
KMYR 312009Z 3120/0118 14004KT P6SM VCSH SCT025 BKN040
      TEMPO 3120/3124 4SM -RA BR BKN005 OVC020
     FM010000 16004KT P6SM OVC025
     FM010700 22004KT 4SM BR SCT005
      TEMPO 0109/0111 1SM BR BKN004
     FM011300 02004KT P6SM BKN060=



000
FTUS42 KILM 311730
TAFMYR
TAF
KMYR 311730Z 3118/0118 14004KT P6SM VCSH SCT025 BKN040
     FM010000 16004KT P6SM OVC025
     FM010700 22004KT 4SM BR SCT005
      TEMPO 0109/0111 1SM BR BKN004
     FM011300 02004KT P6SM BKN060=



000
FTUS42 KILM 311730
TAFLBT
TAF
KLBT 311730Z 3118/0118 03008KT P6SM SCT015 BKN040
     FM312200 VRB03KT P6SM SCT025 SCT050
     FM010700 00000KT 5SM BR SCT015
     FM010800 00000KT 2SM BR SCT004
      TEMPO 0109/0112 1/2SM FG BKN003
     FM011300 02004KT P6SM BKN060=



000
FTUS42 KILM 311730
TAFFLO
TAF
KFLO 311730Z 3118/0118 07006KT P6SM VCSH BKN025 BKN035
     FM312200 VRB03KT P6SM SCT025 BKN050
     FM010700 00000KT 5SM BR SCT015
     FM010800 00000KT 2SM BR SCT004
      TEMPO 0109/0112 1/2SM FG BKN003
     FM011300 02004KT P6SM BKN060=



000
FTUS42 KILM 311730
TAFCRE
TAF
KCRE 311730Z 3118/0118 03009KT P6SM VCSH SCT025 BKN050 OVC100
     FM010000 16004KT P6SM OVC025
     FM010700 22004KT 4SM BR SCT005
      TEMPO 0109/0111 1SM BR BKN004
     FM011300 02004KT P6SM BKN060=



000
FTUS42 KILM 311730
TAFILM
TAF
KILM 311730Z 3118/0118 03003KT P6SM VCSH SCT030 BKN070
     FM010000 16004KT P6SM OVC025
     FM010800 22004KT 4SM BR SCT005
      TEMPO 0109/0111 2SM BR BKN004
     FM011300 VRB04KT P6SM BKN060=



000
FTUS42 KILM 311410 AAB
TAFLBT
TAF AMD
KLBT 311410Z 3114/0112 10005KT 6SM -RA BR SCT007 BKN025
     FM311700 12008KT P6SM VCSH SCT015 SCT025 BKN050
     FM312300 VRB04KT P6SM SCT025 SCT050=



000
FTUS42 KILM 311410 AAB
TAFLBT
TAF AMD
KLBT 311410Z 3114/0112 10005KT 6SM -RA BR SCT007 BKN025
     FM311700 12008KT P6SM VCSH SCT015 SCT025 BKN050
     FM312300 VRB04KT P6SM SCT025 SCT050=



000
FTUS42 KILM 311409 AAB
TAFFLO
TAF AMD
KFLO 311409Z 3114/0112 03008KT P6SM VCSH SCT006 BKN020
     FM312200 VRB03KT P6SM SCT025 SCT050=



000
FTUS42 KILM 311409 AAB
TAFFLO
TAF AMD
KFLO 311409Z 3114/0112 03008KT P6SM VCSH SCT006 BKN020
     FM312200 VRB03KT P6SM SCT025 SCT050=



000
FTUS42 KILM 311251 AAA
TAFFLO
TAF AMD
KFLO 311251Z 3113/0112 11004KT 6SM -SHRA BKN005 BKN025
     FM311500 12008KT P6SM VCSH SCT015 SCT025 BKN050
     FM312200 VRB03KT P6SM SCT025 SCT050=



000
FTUS42 KILM 311250 AAA
TAFLBT
TAF AMD
KLBT 311250Z 3113/0112 VRB03KT 5SM -RA BR BKN007 OVC025
     FM311500 10005KT 4SM -RA BR SCT007 OVC015
     FM311700 12008KT P6SM VCSH SCT015 SCT025 BKN050
     FM312300 VRB04KT P6SM SCT025 SCT050=



000
FTUS42 KILM 311249 AAA
TAFILM
TAF AMD
KILM 311249Z 3113/0112 10004KT 4SM -SHRA BKN035
      TEMPO 3113/3117 2SM +SHRA BKN020
     FM311900 14010G16KT P6SM -RA SCT025 BKN050 OVC100
     FM010000 16004KT P6SM OVC025=



000
FTUS42 KILM 311249 AAA
TAFILM
TAF AMD
KILM 311249Z 3113/0112 10004KT 4SM -SHRA BKN035
      TEMPO 3113/3117 2SM +SHRA BKN020
     FM311900 14010G16KT P6SM -RA SCT025 BKN050 OVC100
     FM010000 16004KT P6SM OVC025=



000
FTUS42 KILM 311123 CCA
TAFMYR
TAF COR
KMYR 311123Z 3112/0112 15009KT 2SM SHRA BR OVC007
     FM311300 13009KT 3SM SHRA BR OVC012
     FM311800 15011G16KT 6SM -RA SCT025 BKN050 OVC100
     FM010000 17006KT P6SM OVC025=



000
FTUS42 KILM 311123 CCA
TAFMYR
TAF COR
KMYR 311123Z 3112/0112 15009KT 2SM SHRA BR OVC007
     FM311300 13009KT 3SM SHRA BR OVC012
     FM311800 15011G16KT 6SM -RA SCT025 BKN050 OVC100
     FM010000 17006KT P6SM OVC025=



000
FTUS42 KILM 311122 CCA
TAFLBT
TAF COR
KLBT 311122Z 3112/0112 VRB03KT 2SM RA BR SCT007 OVC025
     FM311300 10005KT 4SM -RA BR SCT007 OVC015
     FM311700 12008KT P6SM VCSH SCT015 SCT025 BKN050
     FM312300 VRB04KT P6SM SCT025 SCT050=



000
FTUS42 KILM 311122 CCA
TAFLBT
TAF COR
KLBT 311122Z 3112/0112 VRB03KT 2SM RA BR SCT007 OVC025
     FM311300 10005KT 4SM -RA BR SCT007 OVC015
     FM311700 12008KT P6SM VCSH SCT015 SCT025 BKN050
     FM312300 VRB04KT P6SM SCT025 SCT050=



000
FTUS42 KILM 311120
TAFFLO
TAF
KFLO 311120Z 3112/0112 11004KT 5SM -SHRA SCT003 BKN018 BKN025
     FM311300 12008KT P6SM VCSH SCT015 SCT025 BKN050
     FM312200 VRB03KT P6SM SCT025 SCT050=



000
FTUS42 KILM 311120
TAFCRE
TAF
KCRE 311120Z 3112/0112 15009KT 4SM -SHRA BR SCT010 OVC025
     FM311300 13009KT 3SM SHRA BR OVC012
     FM311800 15011G16KT 6SM -RA SCT025 BKN050 OVC100
     FM010000 17006KT P6SM OVC025=



000
FTUS42 KILM 311120
TAFLBT
TAF
KLBT 311120Z 3112/0112 VRB03KT 6SM -RA BR SCT007 OVC045
     FM311300 10005KT 4SM -RA BR SCT007 OVC015
     FM311700 12008KT P6SM VCSH SCT015 SCT025 BKN050
     FM312300 VRB04KT P6SM SCT025 SCT050=



000
FTUS42 KILM 311120
TAFLBT
TAF
KLBT 311120Z 3112/0112 VRB03KT 6SM -RA BR SCT007 OVC045
     FM311300 10005KT 4SM -RA BR SCT007 OVC015
     FM311700 12008KT P6SM VCSH SCT015 SCT025 BKN050
     FM312300 VRB04KT P6SM SCT025 SCT050=



000
FTUS42 KILM 311120
TAFCRE
TAF
KCRE 311120Z 3112/0112 15009KT 4SM -SHRA BR SCT010 OVC025
     FM311300 13009KT 3SM SHRA BR OVC012
     FM311800 15011G16KT 6SM -RA SCT025 BKN050 OVC100
     FM010000 17006KT P6SM OVC025=



000
FTUS42 KILM 311120
TAFILM
TAF
KILM 311120Z 3112/0112 12003KT P6SM -RA SCT025 BKN050 OVC080
     FM311300 10004KT 4SM -SHRA BKN024
      TEMPO 3115/3119 3SM +SHRA
     FM311900 14010G16KT P6SM -RA SCT025 BKN050 OVC100
     FM010000 16004KT P6SM OVC025=



000
FTUS42 KILM 311120
TAFILM
TAF
KILM 311120Z 3112/0112 12003KT P6SM -RA SCT025 BKN050 OVC080
     FM311300 10004KT 4SM -SHRA BKN024
      TEMPO 3115/3119 3SM +SHRA
     FM311900 14010G16KT P6SM -RA SCT025 BKN050 OVC100
     FM010000 16004KT P6SM OVC025=



000
FTUS42 KILM 311120
TAFMYR
TAF
KMYR 311120Z 3112/0112 15009KT 4SM -SHRA BR SCT010 OVC025
     FM311300 13009KT 3SM SHRA BR OVC012
     FM311800 15011G16KT 6SM -RA SCT025 BKN050 OVC100
     FM010000 17006KT P6SM OVC025=



000
FTUS42 KILM 311120
TAFMYR
TAF
KMYR 311120Z 3112/0112 15009KT 4SM -SHRA BR SCT010 OVC025
     FM311300 13009KT 3SM SHRA BR OVC012
     FM311800 15011G16KT 6SM -RA SCT025 BKN050 OVC100
     FM010000 17006KT P6SM OVC025=



000
FTUS42 KILM 311120
TAFFLO
TAF
KFLO 311120Z 3112/0112 11004KT 5SM -SHRA SCT003 BKN018 BKN025
     FM311300 12008KT P6SM VCSH SCT015 SCT025 BKN050
     FM312200 VRB03KT P6SM SCT025 SCT050=



000
FTUS42 KILM 310920 AAA
TAFLBT
TAF AMD
KLBT 310920Z 3109/0106 09003KT P6SM VCSH SCT025 BKN110
     FM311200 VRB03KT 4SM -RA BR SCT007 OVC015
     FM311300 10005KT 4SM -RA BR BKN007 OVC015
     FM311700 12008KT P6SM VCSH SCT015 SCT025 BKN050
     FM312300 VRB04KT P6SM SCT025 SCT050=



000
FTUS42 KILM 310920 AAA
TAFFLO
TAF AMD
KFLO 310920Z 3109/0106 08005KT 6SM -RA OVC012
     FM311100 11004KT 5SM -SHRA SCT003 BKN012 BKN025
     FM311600 12008KT P6SM VCSH SCT015 SCT025 BKN050
     FM312200 VRB03KT P6SM SCT025 SCT050=



000
FTUS42 KILM 310919 AAA
TAFMYR
TAF AMD
KMYR 310919Z 3109/0106 14009KT 4SM -SHRA BR SCT020 OVC045
     FM311100 12004KT 4SM -SHRA BR BKN020
     FM311800 15011G18KT 6SM -RA BR SCT025 BKN050 OVC100
     FM010000 16007KT P6SM OVC025
      AMD LTD TO CLD VIS AND WIND TIL 311100=



000
FTUS42 KILM 310918 AAA
TAFCRE
TAF AMD
KCRE 310918Z 3109/0106 15008KT P6SM -RA SCT015 SCT070 BKN100
     FM311100 14009KT 4SM -SHRA BR SCT010 OVC025
     FM311300 13009KT 4SM -SHRA BR OVC012
     FM311800 15011G16KT 6SM -RA SCT025 BKN050 OVC100
     FM010000 17006KT P6SM OVC025=



000
FTUS42 KILM 310534
TAFFLO
TAF
KFLO 310534Z 3106/0106 08005KT 6SM -RA OVC008
     FM310800 VRB03KT 3SM -RA BR OVC008
     FM311100 11004KT 5SM -SHRA SCT003 BKN012 BKN025
     FM311600 12008KT P6SM VCSH SCT015 SCT025 BKN050
     FM312200 VRB03KT P6SM SCT025 SCT050=



000
FTUS42 KILM 310534
TAFLBT
TAF
KLBT 310534Z 3106/0106 09003KT 6SM -RA SCT025 BKN110
     FM310800 VRB03KT 4SM -RA BR SCT007 OVC015
     FM311300 10005KT 4SM -RA BR BKN007 OVC015
     FM311700 12008KT P6SM VCSH SCT015 SCT025 BKN050
     FM312300 VRB04KT P6SM SCT025 SCT050=



000
FTUS42 KILM 310534
TAFMYR
TAF
KMYR 310534Z 3106/0106 14010KT 6SM -RA BR BKN012 BKN025 OVC050
     FM310800 14009KT 4SM -SHRA BR SCT010 OVC025
     FM311000 12004KT 4SM -SHRA BR BKN012 OVC025
     FM311800 15011G18KT 6SM -RA BR SCT025 BKN050 OVC100
     FM010000 16007KT P6SM OVC025
      AMD LTD TO CLD VIS AND WIND TIL 311100=



000
FTUS42 KILM 310534
TAFCRE
TAF
KCRE 310534Z 3106/0106 15008KT P6SM -RA SCT015 SCT070 BKN100
     FM310900 14009KT 4SM -SHRA BR SCT010 OVC025
     FM311000 13009KT 4SM -SHRA BR OVC012
     FM311800 15011G16KT 6SM -RA SCT025 BKN050 OVC100
     FM010000 17006KT P6SM OVC025=



000
FTUS42 KILM 310534
TAFILM
TAF
KILM 310534Z 3106/0106 12003KT P6SM -RA SCT025 BKN050 OVC080
     FM311300 10004KT P6SM -SHRA SCT025 OVC050
     FM311800 14010G16KT P6SM -RA SCT025 BKN050 OVC100
     FM010000 16004KT P6SM OVC025=



000
FTUS42 KILM 310211 AAA
TAFLBT
TAF AMD
KLBT 310211Z 3102/3124 14003KT P6SM -RA SCT025 BKN110
     FM310700 VRB03KT 4SM -RA BR SCT007 OVC015
     FM311300 10005KT 4SM -RA BR BKN007 OVC015
     FM311700 12008KT P6SM VCSH SCT015 SCT025 BKN050=



000
FTUS42 KILM 310211 AAA
TAFLBT
TAF AMD
KLBT 310211Z 3102/3124 14003KT P6SM -RA SCT025 BKN110
     FM310700 VRB03KT 4SM -RA BR SCT007 OVC015
     FM311300 10005KT 4SM -RA BR BKN007 OVC015
     FM311700 12008KT P6SM VCSH SCT015 SCT025 BKN050=



000
FTUS42 KILM 310211 AAB
TAFILM
TAF AMD
KILM 310211Z 3102/3124 VRB04KT P6SM -RA FEW020 SCT050 SCT110
     FM310600 VRB03KT 5SM -RA BR SCT025 BKN050 OVC080
     FM311300 10004KT P6SM -SHRA SCT025 OVC050
     FM311800 14010G16KT P6SM -RA SCT025 BKN050 OVC100=



000
FTUS42 KILM 310211 AAB
TAFILM
TAF AMD
KILM 310211Z 3102/3124 VRB04KT P6SM -RA FEW020 SCT050 SCT110
     FM310600 VRB03KT 5SM -RA BR SCT025 BKN050 OVC080
     FM311300 10004KT P6SM -SHRA SCT025 OVC050
     FM311800 14010G16KT P6SM -RA SCT025 BKN050 OVC100=



000
FTUS42 KILM 310210 AAA
TAFCRE
TAF AMD
KCRE 310210Z 3102/3124 05005KT P6SM -RA SCT015 SCT070 BKN110
     FM310700 15009KT 5SM -RA BR BKN012 BKN025 OVC050
     FM311000 13009KT 4SM -SHRA BR OVC025
     FM311800 15011G16KT 6SM -RA SCT025 BKN050 OVC100=



000
FTUS42 KILM 310210 AAA
TAFCRE
TAF AMD
KCRE 310210Z 3102/3124 05005KT P6SM -RA SCT015 SCT070 BKN110
     FM310700 15009KT 5SM -RA BR BKN012 BKN025 OVC050
     FM311000 13009KT 4SM -SHRA BR OVC025
     FM311800 15011G16KT 6SM -RA SCT025 BKN050 OVC100=



000
FTUS42 KILM 310156 AAB
TAFFLO
TAF AMD
KFLO 310156Z 3102/3124 13005KT P6SM -SHRA FEW005 SCT020 BKN050
     FM310700 VRB03KT 3SM -RA BR SCT008 OVC015
     FM311100 11004KT 5SM -SHRA SCT003 BKN012 BKN025
     FM311600 12008KT P6SM VCSH SCT015 SCT025 BKN050=



000
FTUS42 KILM 310057 AAA
TAFFLO
TAF AMD
KFLO 310057Z 3101/3124 13005KT P6SM -RA FEW005 SCT020 BKN050
      TEMPO 3101/3103 4SM -RA BR BKN005 BKN015
     FM310300 VRB03KT 3SM -RA BR SCT008 OVC015
     FM311100 11004KT 5SM -SHRA SCT003 BKN012 BKN025
     FM311600 12008KT P6SM VCSH SCT015 SCT025 BKN050=



000
FTUS42 KILM 310057 AAA
TAFFLO
TAF AMD
KFLO 310057Z 3101/3124 13005KT P6SM -RA FEW005 SCT020 BKN050
      TEMPO 3101/3103 4SM -RA BR BKN005 BKN015
     FM310300 VRB03KT 3SM -RA BR SCT008 OVC015
     FM311100 11004KT 5SM -SHRA SCT003 BKN012 BKN025
     FM311600 12008KT P6SM VCSH SCT015 SCT025 BKN050=



000
FTUS42 KILM 302329
TAFFLO
TAF
KFLO 302329Z 3100/3124 14005KT P6SM -RA FEW005 SCT020 BKN050
      TEMPO 3100/3102 3SM -RA BR SCT005 BKN015
     FM310300 VRB03KT 4SM -RA BR SCT008 OVC015
     FM311100 11004KT 5SM -SHRA SCT003 BKN012 BKN025
     FM311600 12008KT P6SM VCSH SCT015 SCT025 BKN050=



000
FTUS42 KILM 302329
TAFMYR
TAF
KMYR 302329Z 3100/3124 14005KT P6SM -RA SCT020 SCT070 BKN110
      TEMPO 3100/3104 3SM -RA BR BKN009 OVC025
     FM310400 VRB03KT 5SM -RA BR BKN012 BKN025 OVC050
     FM311000 12004KT 4SM -SHRA BR OVC025
     FM311800 15011G18KT 6SM -RA BR SCT025 BKN050 OVC100
      AMD LTD TO CLD VIS AND WIND 3104/3111=



000
FTUS42 KILM 302329
TAFCRE
TAF
KCRE 302329Z 3100/3124 08005KT P6SM -RA SCT020 SCT070 BKN110
      TEMPO 3100/3104 3SM -RA BR BKN009 OVC025
     FM310400 15009KT 5SM -RA BR BKN012 BKN025 OVC050
     FM311000 13009KT 4SM -SHRA BR OVC025
     FM311800 15011G16KT 6SM -RA SCT025 BKN050 OVC100=



000
FTUS42 KILM 302329
TAFILM
TAF
KILM 302329Z 3100/3124 14005KT P6SM FEW020 SCT050 SCT110
     FM310200 VRB03KT 5SM -RA BR SCT025 BKN050 OVC080
     FM311300 10004KT P6SM -SHRA SCT025 OVC050
     FM311800 14010G16KT P6SM -RA SCT025 BKN050 OVC100=



000
FTUS42 KILM 302329
TAFLBT
TAF
KLBT 302329Z 3100/3124 14005KT 5SM -RA SCT025 BKN110
     FM310700 VRB03KT 4SM -RA BR SCT007 OVC015
     FM311300 10005KT 4SM -RA BR BKN007 OVC015
     FM311700 12008KT P6SM VCSH SCT015 SCT025 BKN050=



000
FTUS42 KILM 302329
TAFLBT
TAF
KLBT 302329Z 3100/3124 14005KT 5SM -RA SCT025 BKN110
     FM310700 VRB03KT 4SM -RA BR SCT007 OVC015
     FM311300 10005KT 4SM -RA BR BKN007 OVC015
     FM311700 12008KT P6SM VCSH SCT015 SCT025 BKN050=



000
FTUS42 KILM 302329
TAFILM
TAF
KILM 302329Z 3100/3124 14005KT P6SM FEW020 SCT050 SCT110
     FM310200 VRB03KT 5SM -RA BR SCT025 BKN050 OVC080
     FM311300 10004KT P6SM -SHRA SCT025 OVC050
     FM311800 14010G16KT P6SM -RA SCT025 BKN050 OVC100=



000
FTUS42 KILM 302329
TAFFLO
TAF
KFLO 302329Z 3100/3124 14005KT P6SM -RA FEW005 SCT020 BKN050
      TEMPO 3100/3102 3SM -RA BR SCT005 BKN015
     FM310300 VRB03KT 4SM -RA BR SCT008 OVC015
     FM311100 11004KT 5SM -SHRA SCT003 BKN012 BKN025
     FM311600 12008KT P6SM VCSH SCT015 SCT025 BKN050=



000
FTUS42 KILM 302329
TAFCRE
TAF
KCRE 302329Z 3100/3124 08005KT P6SM -RA SCT020 SCT070 BKN110
      TEMPO 3100/3104 3SM -RA BR BKN009 OVC025
     FM310400 15009KT 5SM -RA BR BKN012 BKN025 OVC050
     FM311000 13009KT 4SM -SHRA BR OVC025
     FM311800 15011G16KT 6SM -RA SCT025 BKN050 OVC100=



000
FTUS42 KILM 302329
TAFMYR
TAF
KMYR 302329Z 3100/3124 14005KT P6SM -RA SCT020 SCT070 BKN110
      TEMPO 3100/3104 3SM -RA BR BKN009 OVC025
     FM310400 VRB03KT 5SM -RA BR BKN012 BKN025 OVC050
     FM311000 12004KT 4SM -SHRA BR OVC025
     FM311800 15011G18KT 6SM -RA BR SCT025 BKN050 OVC100
      AMD LTD TO CLD VIS AND WIND 3104/3111=



000
FTUS42 KILM 301720
TAFILM
TAF
KILM 301720Z 3018/3118 05006KT P6SM VCSH SCT045 BKN200
     FM301900 09008KT 6SM -SHRA BKN045
     FM302100 14005KT 5SM -SHRA BKN025
     FM310100 VRB03KT 4SM -RA BR BKN016
     FM311300 08004KT 5SM -SHRA BKN025=



000
FTUS42 KILM 301720
TAFCRE
TAF
KCRE 301720Z 3018/3118 10006KT P6SM -SHRA BKN035
     FM302000 14005KT 5SM -SHRA BKN025
     FM310100 VRB03KT 4SM -RA BR BKN012
     FM311300 12004KT 5SM -SHRA BKN025=



000
FTUS42 KILM 301720
TAFLBT
TAF
KLBT 301720Z 3018/3118 05006KT P6SM VCSH SCT045 BKN200
     FM301900 09008KT 6SM -SHRA BKN045
     FM302100 14005KT 5SM -SHRA BKN025
     FM310100 VRB03KT 4SM -RA BR BKN016
     FM311300 08004KT 5SM -SHRA BKN025=



000
FTUS42 KILM 301720
TAFMYR
TAF
KMYR 301720Z 3018/3118 10006KT P6SM -SHRA BKN035
     FM302000 14005KT 5SM -SHRA BKN025
     FM310100 VRB03KT 4SM -RA BR BKN012
     FM311300 12004KT 5SM -SHRA BKN025=



000
FTUS42 KILM 301720
TAFFLO
TAF
KFLO 301720Z 3018/3118 10006KT P6SM -SHRA BKN050
     FM302000 14005KT 5SM -SHRA BKN025
     FM310100 VRB03KT 4SM -RA BR BKN008
     FM311300 12004KT 5SM -SHRA BKN025=



000
FTUS42 KILM 301148
TAFFLO
TAF
KFLO 301148Z 3012/3112 04002KT P6SM SCT030 BKN250
     FM301300 06005KT P6SM VCSH SCT035 BKN150
     FM301400 09008KT 6SM -SHRA BKN045
     FM301900 12004KT 4SM SHRA BKN025=



000
FTUS42 KILM 301148
TAFCRE
TAF
KCRE 301148Z 3012/3112 04002KT P6SM SCT030 OVC250
     FM301300 06004KT P6SM BKN050 BKN150
     FM301900 10007KT P6SM VCSH BKN045 OVC100
     FM310100 12003KT P6SM VCSH BKN035 OVC070=



000
FTUS42 KILM 301148
TAFMYR
TAF
KMYR 301148Z 3012/3112 06005KT P6SM VCSH SCT035 BKN150
     FM301400 09008KT 6SM -SHRA BKN045
     FM301900 12004KT 4SM SHRA BKN025=



000
FTUS42 KILM 301148
TAFLBT
TAF
KLBT 301148Z 3012/3112 03003KT P6SM BKN250
     FM301400 05006KT P6SM SCT045 BKN200
     FM301900 09008KT 6SM -SHRA BKN045
     FM310000 12004KT 4SM SHRA BKN025=



000
FTUS42 KILM 301148
TAFILM
TAF
KILM 301148Z 3012/3112 03003KT P6SM BKN250
     FM301400 05006KT P6SM SCT045 BKN200
     FM301900 09008KT 6SM -SHRA BKN045
     FM310000 12004KT 4SM SHRA BKN025=



000
FTUS42 KILM 301148
TAFFLO
TAF
KFLO 301148Z 3012/3112 04002KT P6SM SCT030 BKN250
     FM301300 06005KT P6SM VCSH SCT035 BKN150
     FM301400 09008KT 6SM -SHRA BKN045
     FM301900 12004KT 4SM SHRA BKN025=



000
FTUS42 KILM 301148
TAFCRE
TAF
KCRE 301148Z 3012/3112 04002KT P6SM SCT030 OVC250
     FM301300 06004KT P6SM BKN050 BKN150
     FM301900 10007KT P6SM VCSH BKN045 OVC100
     FM310100 12003KT P6SM VCSH BKN035 OVC070=



000
FTUS42 KILM 301148
TAFMYR
TAF
KMYR 301148Z 3012/3112 06005KT P6SM VCSH SCT035 BKN150
     FM301400 09008KT 6SM -SHRA BKN045
     FM301900 12004KT 4SM SHRA BKN025=



000
FTUS42 KILM 301148
TAFILM
TAF
KILM 301148Z 3012/3112 03003KT P6SM BKN250
     FM301400 05006KT P6SM SCT045 BKN200
     FM301900 09008KT 6SM -SHRA BKN045
     FM310000 12004KT 4SM SHRA BKN025=



000
FTUS42 KILM 301148
TAFLBT
TAF
KLBT 301148Z 3012/3112 03003KT P6SM BKN250
     FM301400 05006KT P6SM SCT045 BKN200
     FM301900 09008KT 6SM -SHRA BKN045
     FM310000 12004KT 4SM SHRA BKN025=



000
FTUS42 KILM 300520
TAFLBT
TAF
KLBT 300520Z 3006/3106 00000KT P6SM OVC250
      TEMPO 3009/3012 00000KT 3SM BR SCT120 BKN200
     FM301200 07003KT P6SM BKN060 BKN150
     FM302000 12006KT P6SM VCSH BKN050 OVC120
     FM310000 14003KT P6SM VCSH BKN040 OVC080=



000
FTUS42 KILM 300520
TAFCRE
TAF
KCRE 300520Z 3006/3106 04002KT P6SM SCT030 BKN250
      TEMPO 3008/3012 00000KT 3SM BR BKN030 BKN200
     FM301300 06005KT P6SM SCT035 BKN150
     FM301800 10008KT P6SM VCSH SCT025 BKN120
     FM310000 12004KT P6SM VCSH SCT020 OVC070=



000
FTUS42 KILM 300520
TAFFLO
TAF
KFLO 300520Z 3006/3106 00000KT P6SM OVC250
     FM301300 06004KT P6SM BKN050 BKN150
     FM301900 10007KT P6SM VCSH BKN045 OVC100
     FM310100 12003KT P6SM VCSH BKN035 OVC070=



000
FTUS42 KILM 300520
TAFILM
TAF
KILM 300520Z 3006/3106 03003KT P6SM BKN250
     FM301400 05006KT P6SM SCT045 BKN200
     FM302000 09008KT P6SM VCSH SCT035 BKN100
     FM310000 12004KT P6SM VCSH SCT030 OVC080=



000
FTUS42 KILM 300520
TAFILM
TAF
KILM 300520Z 3006/3106 03003KT P6SM BKN250
     FM301400 05006KT P6SM SCT045 BKN200
     FM302000 09008KT P6SM VCSH SCT035 BKN100
     FM310000 12004KT P6SM VCSH SCT030 OVC080=



000
FTUS42 KILM 300520
TAFCRE
TAF
KCRE 300520Z 3006/3106 04002KT P6SM SCT030 BKN250
      TEMPO 3008/3012 00000KT 3SM BR BKN030 BKN200
     FM301300 06005KT P6SM SCT035 BKN150
     FM301800 10008KT P6SM VCSH SCT025 BKN120
     FM310000 12004KT P6SM VCSH SCT020 OVC070=



000
FTUS42 KILM 300520
TAFLBT
TAF
KLBT 300520Z 3006/3106 00000KT P6SM OVC250
      TEMPO 3009/3012 00000KT 3SM BR SCT120 BKN200
     FM301200 07003KT P6SM BKN060 BKN150
     FM302000 12006KT P6SM VCSH BKN050 OVC120
     FM310000 14003KT P6SM VCSH BKN040 OVC080=



000
FTUS42 KILM 300520
TAFMYR
TAF
KMYR 300520Z 3006/3106 05002KT P6SM SCT030 BKN250
      TEMPO 3008/3012 00000KT 5SM BR BKN025 BKN200
     FM301300 06005KT P6SM SCT035 BKN150
     FM301800 10008KT P6SM VCSH SCT025 BKN120
     FM310000 12004KT P6SM VCSH SCT020 OVC070
      AMD LTD TO CLD VIS AND WIND TIL 301100=



000
FTUS42 KILM 300520
TAFMYR
TAF
KMYR 300520Z 3006/3106 05002KT P6SM SCT030 BKN250
      TEMPO 3008/3012 00000KT 5SM BR BKN025 BKN200
     FM301300 06005KT P6SM SCT035 BKN150
     FM301800 10008KT P6SM VCSH SCT025 BKN120
     FM310000 12004KT P6SM VCSH SCT020 OVC070
      AMD LTD TO CLD VIS AND WIND TIL 301100=



000
FTUS42 KILM 300119 AAA
TAFMYR
TAF AMD
KMYR 300119Z 3001/3024 01005KT P6SM SCT040 SCT250
      TEMPO 3001/3004 BKN030
     FM300600 VRB04KT P6SM BKN050
     FM301300 05008KT P6SM VCSH SCT050 BKN250
     FM301900 11009KT P6SM VCSH BKN050 BKN150
      AMD LTD TO CLD VIS AND WIND 3004/3011=



000
FTUS42 KILM 292337
TAFILM
TAF
KILM 292337Z 3000/3024 03005KT P6SM SCT050 SCT250
     FM300600 VRB02KT P6SM BKN250
     FM301400 01004KT P6SM VCSH SCT050 BKN250
     FM301900 09006KT P6SM VCSH BKN050 BKN150=



000
FTUS42 KILM 292337
TAFFLO
TAF
KFLO 292337Z 3000/3024 04006KT P6SM SCT250
     FM300400 VRB02KT P6SM OVC250
     FM301200 07006KT P6SM VCSH BKN050 BKN250
     FM301800 13007KT P6SM VCSH BKN050 OVC150=



000
FTUS42 KILM 292337
TAFMYR
TAF
KMYR 292337Z 3000/3024 08005KT P6SM FEW040 SCT250
     FM300600 VRB04KT P6SM BKN050
     FM301300 05008KT P6SM VCSH SCT050 BKN250
     FM301900 11009KT P6SM VCSH BKN050 BKN150
      AMD LTD TO CLD VIS AND WIND 3004/3011=



000
FTUS42 KILM 292337
TAFCRE
TAF
KCRE 292337Z 3000/3024 06004KT P6SM FEW040 SCT250
     FM300600 03002KT P6SM BKN250
     FM301300 05007KT P6SM VCSH SCT050 BKN250
     FM301900 11007KT P6SM VCSH BKN050 BKN150=



000
FTUS42 KILM 292337
TAFILM
TAF
KILM 292337Z 3000/3024 03005KT P6SM SCT050 SCT250
     FM300600 VRB02KT P6SM BKN250
     FM301400 01004KT P6SM VCSH SCT050 BKN250
     FM301900 09006KT P6SM VCSH BKN050 BKN150=



000
FTUS42 KILM 292337
TAFLBT
TAF
KLBT 292337Z 3000/3024 07008KT P6SM SCT250
     FM300400 VRB01KT P6SM OVC250
     FM301200 08003KT P6SM BKN050 BKN250
     FM301600 13006KT P6SM VCSH BKN050 OVC150=



000
FTUS42 KILM 292337
TAFLBT
TAF
KLBT 292337Z 3000/3024 07008KT P6SM SCT250
     FM300400 VRB01KT P6SM OVC250
     FM301200 08003KT P6SM BKN050 BKN250
     FM301600 13006KT P6SM VCSH BKN050 OVC150=



000
FTUS42 KILM 292337
TAFCRE
TAF
KCRE 292337Z 3000/3024 06004KT P6SM FEW040 SCT250
     FM300600 03002KT P6SM BKN250
     FM301300 05007KT P6SM VCSH SCT050 BKN250
     FM301900 11007KT P6SM VCSH BKN050 BKN150=



000
FTUS42 KILM 292337
TAFFLO
TAF
KFLO 292337Z 3000/3024 04006KT P6SM SCT250
     FM300400 VRB02KT P6SM OVC250
     FM301200 07006KT P6SM VCSH BKN050 BKN250
     FM301800 13007KT P6SM VCSH BKN050 OVC150=



000
FTUS42 KILM 292337
TAFMYR
TAF
KMYR 292337Z 3000/3024 08005KT P6SM FEW040 SCT250
     FM300600 VRB04KT P6SM BKN050
     FM301300 05008KT P6SM VCSH SCT050 BKN250
     FM301900 11009KT P6SM VCSH BKN050 BKN150
      AMD LTD TO CLD VIS AND WIND 3004/3011=



000
FTUS42 KILM 292231 AAA
TAFILM
TAF AMD
KILM 292231Z 2923/3018 02006KT P6SM SCT050 SCT250
     FM300100 07006KT P6SM BKN250
     FM301200 01004KT P6SM BKN050=



000
FTUS42 KILM 291730
TAFLBT
TAF
KLBT 291730Z 2918/3018 05008KT P6SM SCT040 BKN250
     FM291900 08008KT P6SM SCT060 BKN250
     FM300100 11003KT P6SM OVC250
     FM301000 00000KT P6SM BKN050=



000
FTUS42 KILM 291730
TAFILM
TAF
KILM 291730Z 2918/3018 04006KT P6SM SCT040 BKN250
     FM291900 08012KT P6SM SCT050 BKN250
     FM300100 07006KT P6SM BKN250
     FM301200 01004KT P6SM BKN050=



000
FTUS42 KILM 291730
TAFCRE
TAF
KCRE 291730Z 2918/3018 03011KT P6SM SCT035 BKN250
     FM300200 08005KT P6SM BKN250
     FM300900 00000KT P6SM BKN050=



000
FTUS42 KILM 291730
TAFFLO
TAF
KFLO 291730Z 2918/3018 04008KT P6SM SCT045 BKN250
     FM292000 07008KT P6SM SCT050 BKN250
     FM300100 10004KT P6SM OVC250
     FM301200 00000KT P6SM BKN050=



000
FTUS42 KILM 291730
TAFMYR
TAF
KMYR 291730Z 2918/3018 03009KT P6SM SCT035 BKN250
     FM300200 08006KT P6SM BKN250
     FM300600 VRB04KT P6SM BKN050
     FM301200 27002KT P6SM VCSH BKN050=



000
FTUS42 KILM 291730
TAFLBT
TAF
KLBT 291730Z 2918/3018 05008KT P6SM SCT040 BKN250
     FM291900 08008KT P6SM SCT060 BKN250
     FM300100 11003KT P6SM OVC250
     FM301000 00000KT P6SM BKN050=



000
FTUS42 KILM 291730
TAFILM
TAF
KILM 291730Z 2918/3018 04006KT P6SM SCT040 BKN250
     FM291900 08012KT P6SM SCT050 BKN250
     FM300100 07006KT P6SM BKN250
     FM301200 01004KT P6SM BKN050=



000
FTUS42 KILM 291730
TAFCRE
TAF
KCRE 291730Z 2918/3018 03011KT P6SM SCT035 BKN250
     FM300200 08005KT P6SM BKN250
     FM300900 00000KT P6SM BKN050=



000
FTUS42 KILM 291730
TAFFLO
TAF
KFLO 291730Z 2918/3018 04008KT P6SM SCT045 BKN250
     FM292000 07008KT P6SM SCT050 BKN250
     FM300100 10004KT P6SM OVC250
     FM301200 00000KT P6SM BKN050=



000
FTUS42 KILM 291730
TAFMYR
TAF
KMYR 291730Z 2918/3018 03009KT P6SM SCT035 BKN250
     FM300200 08006KT P6SM BKN250
     FM300600 VRB04KT P6SM BKN050
     FM301200 27002KT P6SM VCSH BKN050=



000
FTUS42 KILM 291120
TAFLBT
TAF
KLBT 291120Z 2912/3012 03002KT P6SM SCT250
     FM291300 05008KT P6SM SCT040 BKN250
     FM291900 08008KT P6SM SCT060 BKN250
     FM300100 11003KT P6SM OVC250=



000
FTUS42 KILM 291120
TAFMYR
TAF
KMYR 291120Z 2912/3012 03005KT P6SM BKN250
     FM291330 05010KT P6SM SCT030 BKN250
     FM291800 09012KT P6SM SCT045 BKN250
     FM300200 08006KT P6SM BKN250=



000
FTUS42 KILM 291120
TAFCRE
TAF
KCRE 291120Z 2912/3012 03004KT P6SM BKN250
     FM291330 05009KT P6SM SCT030 BKN250
     FM291800 09011KT P6SM SCT045 BKN250
     FM300200 08005KT P6SM BKN250=



000
FTUS42 KILM 291120
TAFILM
TAF
KILM 291120Z 2912/3012 03005KT P6SM BKN250
     FM291330 04010KT P6SM SCT035 BKN250
     FM291900 08012KT P6SM SCT050 BKN250
     FM300100 07006KT P6SM BKN250=



000
FTUS42 KILM 291120
TAFILM
TAF
KILM 291120Z 2912/3012 03005KT P6SM BKN250
     FM291330 04010KT P6SM SCT035 BKN250
     FM291900 08012KT P6SM SCT050 BKN250
     FM300100 07006KT P6SM BKN250=



000
FTUS42 KILM 291120
TAFFLO
TAF
KFLO 291120Z 2912/3012 03003KT P6SM SCT250
     FM291400 04008KT P6SM SCT035 BKN250
     FM292000 07008KT P6SM SCT050 BKN250
     FM300100 10004KT P6SM OVC250=



000
FTUS42 KILM 291120
TAFLBT
TAF
KLBT 291120Z 2912/3012 03002KT P6SM SCT250
     FM291300 05008KT P6SM SCT040 BKN250
     FM291900 08008KT P6SM SCT060 BKN250
     FM300100 11003KT P6SM OVC250=



000
FTUS42 KILM 291120
TAFMYR
TAF
KMYR 291120Z 2912/3012 03005KT P6SM BKN250
     FM291330 05010KT P6SM SCT030 BKN250
     FM291800 09012KT P6SM SCT045 BKN250
     FM300200 08006KT P6SM BKN250=



000
FTUS42 KILM 291120
TAFFLO
TAF
KFLO 291120Z 2912/3012 03003KT P6SM SCT250
     FM291400 04008KT P6SM SCT035 BKN250
     FM292000 07008KT P6SM SCT050 BKN250
     FM300100 10004KT P6SM OVC250=



000
FTUS42 KILM 291120
TAFCRE
TAF
KCRE 291120Z 2912/3012 03004KT P6SM BKN250
     FM291330 05009KT P6SM SCT030 BKN250
     FM291800 09011KT P6SM SCT045 BKN250
     FM300200 08005KT P6SM BKN250=



    US Dept of Commerce
    National Oceanic and Atmospheric Administration
    National Weather Service
    1325 East West Highway
    Silver Spring, MD 20910
    Page Author: NWS Internet Services Team
Disclaimer
Information Quality
Credits
Glossary
Privacy Policy
Freedom of Information Act (FOIA)
About Us
Career Opportunities